createdAt,value
2022-10-10T00:01:24.926Z,101636.88
2022-10-10T00:03:51.906Z,101631.47
2022-10-10T00:06:18.700Z,101628.88
2022-10-10T00:08:46.106Z,101628.06
2022-10-10T00:11:14.762Z,101626.25
2022-10-10T00:13:42.170Z,101627.28
2022-10-10T00:16:10.246Z,101626.50
2022-10-10T00:18:37.637Z,101626.81
2022-10-10T00:21:05.057Z,101634.34
2022-10-10T00:23:31.853Z,101631.75
2022-10-10T00:25:59.300Z,101629.16
2022-10-10T00:28:26.426Z,101627.34
2022-10-10T00:30:53.460Z,101627.59
2022-10-10T00:33:20.394Z,101626.81
2022-10-10T00:35:48.319Z,101622.38
2022-10-10T00:38:15.162Z,101623.41
2022-10-10T00:40:50.767Z,101619.25
2022-10-10T00:43:18.632Z,101608.84
2022-10-10T00:45:47.247Z,101609.88
2022-10-10T00:48:22.751Z,101610.13
2022-10-10T00:51:12.443Z,101610.13
2022-10-10T00:54:02.310Z,101609.31
2022-10-10T00:56:36.246Z,101605.16
2022-10-10T00:59:06.150Z,101597.38
2022-10-10T01:01:33.147Z,101602.03
2022-10-10T01:04:01.927Z,101598.88
2022-10-10T01:06:29.587Z,101599.13
2022-10-10T01:08:57.314Z,101596.53
2022-10-10T01:11:32.972Z,101589.75
2022-10-10T01:14:18.995Z,101594.16
2022-10-10T01:16:54.458Z,101586.59
2022-10-10T01:20:03.847Z,101585.28
2022-10-10T01:22:49.893Z,101583.72
2022-10-10T01:25:29.276Z,101584.97
2022-10-10T01:28:03.806Z,101582.38
2022-10-10T01:30:31.262Z,101586.25
2022-10-10T01:33:22.049Z,101583.09
2022-10-10T01:36:20.958Z,101580.72
2022-10-10T01:39:01.663Z,101578.41
2022-10-10T01:41:36.804Z,101580.44
2022-10-10T01:44:03.664Z,101571.56
2022-10-10T01:46:32.522Z,101572.03
2022-10-10T01:49:00.738Z,101569.91
2022-10-10T01:52:01.662Z,101561.56
2022-10-10T01:54:45.755Z,101561.56
2022-10-10T01:57:47.616Z,101558.19
2022-10-10T02:00:17.646Z,101554.81
2022-10-10T02:02:56.208Z,101551.69
2022-10-10T02:05:36.522Z,101548.31
2022-10-10T02:08:05.387Z,101545.94
2022-10-10T02:10:35.782Z,101534.78
2022-10-10T02:13:05.208Z,101533.19
2022-10-10T02:15:43.092Z,101539.97
2022-10-10T02:18:14.901Z,101538.16
2022-10-10T02:20:43.821Z,101537.38
2022-10-10T02:23:16.019Z,101543.56
2022-10-10T02:25:47.681Z,101531.38
2022-10-10T02:28:57.443Z,101524.63
2022-10-10T02:31:37.488Z,101526.19
2022-10-10T02:34:27.403Z,101518.38
2022-10-10T02:37:01.585Z,101512.41
2022-10-10T02:39:33.476Z,101516.59
2022-10-10T02:42:00.293Z,101512.97
2022-10-10T02:44:28.003Z,101509.59
2022-10-10T02:46:54.837Z,101509.59
2022-10-10T02:49:28.571Z,101505.19
2022-10-10T02:51:55.333Z,101499.22
2022-10-10T02:54:22.134Z,101501.81
2022-10-10T02:56:48.919Z,101503.34
2022-10-10T02:59:15.770Z,101502.59
2022-10-10T03:01:42.501Z,101498.16
2022-10-10T03:04:09.341Z,101482.59
2022-10-10T03:06:36.440Z,101487.00
2022-10-10T03:09:04.519Z,101484.63
2022-10-10T03:11:31.421Z,101494.00
2022-10-10T03:13:58.193Z,101486.22
2022-10-10T03:16:25.011Z,101485.44
2022-10-10T03:18:52.604Z,101491.41
2022-10-10T03:21:19.500Z,101486.22
2022-10-10T03:23:46.255Z,101488.81
2022-10-10T03:26:13.400Z,101486.22
2022-10-10T03:28:40.296Z,101494.00
2022-10-10T03:31:07.110Z,101487.00
2022-10-10T03:33:35.120Z,101486.00
2022-10-10T03:36:02.011Z,101492.97
2022-10-10T03:38:28.816Z,101488.59
2022-10-10T03:40:55.644Z,101496.63
2022-10-10T03:43:22.418Z,101491.41
2022-10-10T03:45:49.487Z,101487.78
2022-10-10T03:48:16.774Z,101490.38
2022-10-10T03:50:43.682Z,101489.59
2022-10-10T03:53:12.573Z,101479.44
2022-10-10T03:55:40.902Z,101480.97
2022-10-10T03:58:08.528Z,101490.34
2022-10-10T04:00:35.690Z,101491.34
2022-10-10T04:03:06.422Z,101488.19
2022-10-10T04:05:36.091Z,101487.44
2022-10-10T04:08:03.475Z,101490.25
2022-10-10T04:10:30.313Z,101487.66
2022-10-10T04:12:57.415Z,101478.53
2022-10-10T04:15:25.530Z,101499.53
2022-10-10T04:17:52.199Z,101490.22
2022-10-10T04:20:19.351Z,101482.88
2022-10-10T04:22:46.102Z,101487.06
2022-10-10T04:25:12.858Z,101480.28
2022-10-10T04:27:39.670Z,101477.16
2022-10-10T04:30:07.517Z,101482.56
2022-10-10T04:32:34.302Z,101490.34
2022-10-10T04:35:01.064Z,101485.97
2022-10-10T04:37:28.003Z,101477.66
2022-10-10T04:39:55.403Z,101472.44
2022-10-10T04:42:22.603Z,101477.66
2022-10-10T04:44:49.447Z,101480.47
2022-10-10T04:47:16.196Z,101479.69
2022-10-10T04:49:42.964Z,101471.09
2022-10-10T04:52:10.393Z,101483.84
2022-10-10T04:54:37.692Z,101477.56
2022-10-10T04:57:05.008Z,101477.03
2022-10-10T04:59:31.848Z,101482.69
2022-10-10T05:02:01.676Z,101472.31
2022-10-10T05:04:28.914Z,101478.53
2022-10-10T05:06:55.696Z,101471.78
2022-10-10T05:09:22.496Z,101473.56
2022-10-10T05:11:49.299Z,101469.66
2022-10-10T05:14:15.952Z,101464.47
2022-10-10T05:16:42.770Z,101470.41
2022-10-10T05:19:09.495Z,101466.28
2022-10-10T05:21:36.265Z,101463.91
2022-10-10T05:24:03.811Z,101468.09
2022-10-10T05:26:30.664Z,101460.31
2022-10-10T05:28:57.601Z,101459.03
2022-10-10T05:31:24.477Z,101466.03
2022-10-10T05:33:51.335Z,101456.44
2022-10-10T05:36:18.153Z,101463.19
2022-10-10T05:38:44.926Z,101464.78
2022-10-10T05:41:12.782Z,101458.81
2022-10-10T05:43:39.732Z,101459.81
2022-10-10T05:46:06.785Z,101465.56
2022-10-10T05:48:33.954Z,101470.75
2022-10-10T05:51:01.642Z,101469.72
2022-10-10T05:53:30.348Z,101465.56
2022-10-10T05:55:57.987Z,101470.75
2022-10-10T05:58:26.597Z,101470.75
2022-10-10T06:00:53.822Z,101462.41
2022-10-10T06:03:20.605Z,101481.13
2022-10-10T06:05:50.559Z,101480.09
2022-10-10T06:08:17.287Z,101481.66
2022-10-10T06:10:45.811Z,101482.22
2022-10-10T06:13:14.788Z,101485.34
2022-10-10T06:15:42.254Z,101484.88
2022-10-10T06:18:09.467Z,101482.84
2022-10-10T06:20:41.009Z,101478.41
2022-10-10T06:23:08.929Z,101478.19
2022-10-10T06:25:41.473Z,101488.06
2022-10-10T06:28:10.682Z,101488.63
2022-10-10T06:30:44.597Z,101487.13
2022-10-10T06:33:12.826Z,101489.25
2022-10-10T06:35:42.050Z,101491.09
2022-10-10T06:38:09.602Z,101483.94
2022-10-10T06:40:36.308Z,101486.88
2022-10-10T06:43:04.781Z,101489.28
2022-10-10T06:45:31.666Z,101491.72
2022-10-10T06:47:58.481Z,101487.63
2022-10-10T06:50:25.400Z,101490.25
2022-10-10T06:52:52.547Z,101494.25
2022-10-10T06:55:19.549Z,101499.78
2022-10-10T06:57:46.426Z,101502.22
2022-10-10T07:00:14.628Z,101506.75
2022-10-10T07:02:41.538Z,101506.84
2022-10-10T07:05:12.155Z,101505.91
2022-10-10T07:07:40.444Z,101503.44
2022-10-10T07:10:09.121Z,101504.59
2022-10-10T07:12:43.534Z,101505.75
2022-10-10T07:15:11.966Z,101500.63
2022-10-10T07:17:38.812Z,101497.28
2022-10-10T07:20:06.072Z,101501.00
2022-10-10T07:22:33.290Z,101509.09
2022-10-10T07:25:00.255Z,101508.63
2022-10-10T07:27:27.338Z,101510.78
2022-10-10T07:29:54.408Z,101508.78
2022-10-10T07:32:21.383Z,101515.84
2022-10-10T07:34:48.135Z,101514.06
2022-10-10T07:37:15.067Z,101513.59
2022-10-10T07:39:41.959Z,101508.13
2022-10-10T07:42:08.747Z,101511.53
2022-10-10T07:44:35.570Z,101510.50
2022-10-10T07:47:02.310Z,101517.81
2022-10-10T07:49:29.217Z,101518.84
2022-10-10T07:51:58.872Z,101523.53
2022-10-10T07:54:27.711Z,101521.19
2022-10-10T07:56:54.513Z,101524.88
2022-10-10T07:59:22.647Z,101521.44
2022-10-10T08:01:50.497Z,101531.63
2022-10-10T08:04:18.071Z,101525.38
2022-10-10T08:06:44.823Z,101533.19
2022-10-10T08:09:11.839Z,101535.56
2022-10-10T08:11:38.742Z,101537.38
2022-10-10T08:14:05.865Z,101541.53
2022-10-10T08:16:32.800Z,101535.53
2022-10-10T08:18:59.642Z,101535.53
2022-10-10T08:21:26.601Z,101547.53
2022-10-10T08:23:53.501Z,101535.47
2022-10-10T08:26:20.488Z,101533.94
2022-10-10T08:28:48.849Z,101537.00
2022-10-10T08:31:19.304Z,101532.75
2022-10-10T08:33:46.836Z,101536.84
2022-10-10T08:36:16.292Z,101537.53
2022-10-10T08:38:43.730Z,101535.56
2022-10-10T08:41:35.062Z,101544.84
2022-10-10T08:44:13.543Z,101549.97
2022-10-10T08:46:50.509Z,101544.41
2022-10-10T08:49:42.285Z,101545.09
2022-10-10T08:52:30.006Z,101549.63
2022-10-10T08:54:58.746Z,101544.19
2022-10-10T08:58:06.174Z,101550.28
2022-10-10T09:00:39.623Z,101553.78
2022-10-10T09:03:20.900Z,101550.81
2022-10-10T09:06:19.682Z,101547.84
2022-10-10T09:09:17.735Z,101548.00
2022-10-10T09:12:02.518Z,101553.19
2022-10-10T09:14:35.287Z,101555.31
2022-10-10T09:17:02.018Z,101555.00
2022-10-10T09:19:43.039Z,101555.72
2022-10-10T09:22:16.652Z,101560.44
2022-10-10T09:24:43.766Z,101559.06
2022-10-10T09:27:16.549Z,101552.78
2022-10-10T09:29:52.953Z,101572.13
2022-10-10T09:32:30.600Z,101555.31
2022-10-10T09:35:12.822Z,101558.94
2022-10-10T09:37:48.838Z,101563.03
2022-10-10T09:40:30.345Z,101565.66
2022-10-10T09:42:57.490Z,101570.63
2022-10-10T09:45:52.475Z,101581.91
2022-10-10T09:48:22.810Z,101584.47
2022-10-10T09:50:49.778Z,101576.50
2022-10-10T09:53:17.354Z,101577.72
2022-10-10T09:55:46.589Z,101579.16
2022-10-10T09:58:23.879Z,101579.00
2022-10-10T10:00:51.284Z,101590.13
2022-10-10T10:03:21.192Z,101590.28
2022-10-10T10:06:00.522Z,101599.81
2022-10-10T10:08:34.076Z,101595.47
2022-10-10T10:11:02.492Z,101599.56
2022-10-10T10:13:35.527Z,101610.09
2022-10-10T10:16:06.997Z,101608.34
2022-10-10T10:18:44.982Z,101610.13
2022-10-10T10:21:23.653Z,101606.22
2022-10-10T10:23:50.683Z,101619.00
2022-10-10T10:26:22.720Z,101615.09
2022-10-10T10:28:51.734Z,101620.06
2022-10-10T10:31:46.190Z,101628.63
2022-10-10T10:34:31.635Z,101628.16
2022-10-10T10:37:40.661Z,101626.50
2022-10-10T10:40:22.722Z,101637.41
2022-10-10T10:43:01.645Z,101637.63
2022-10-10T10:45:43.140Z,101631.47
2022-10-10T10:48:29.402Z,101621.03
2022-10-10T10:51:05.567Z,101625.69
2022-10-10T10:53:49.261Z,101627.63
2022-10-10T10:56:37.726Z,101626.25
2022-10-10T11:02:31.219Z,101633.34
2022-10-10T11:05:39.943Z,101647.03
2022-10-10T11:08:28.895Z,101643.56
2022-10-10T11:11:18.401Z,101653.69
2022-10-10T11:13:51.187Z,101668.72
2022-10-10T11:16:47.386Z,101662.91
2022-10-10T11:19:13.941Z,101657.44
2022-10-10T11:22:13.511Z,101653.84
2022-10-10T11:24:46.015Z,101666.69
2022-10-10T11:27:42.536Z,101673.34
2022-10-10T11:30:21.182Z,101662.25
2022-10-10T11:33:02.462Z,101670.06
2022-10-10T11:35:38.293Z,101678.78
2022-10-10T11:38:29.529Z,101674.13
2022-10-10T11:41:05.939Z,101671.47
2022-10-10T11:44:00.729Z,101670.88
2022-10-10T11:46:36.952Z,101665.13
2022-10-10T11:49:13.045Z,101673.16
2022-10-10T11:51:46.566Z,101662.72
2022-10-10T11:54:37.096Z,101668.41
2022-10-10T11:57:12.886Z,101664.34
2022-10-10T11:59:50.155Z,101661.22
2022-10-10T12:02:24.498Z,101664.47
2022-10-10T12:04:54.372Z,101661.91
2022-10-10T12:07:31.168Z,101671.50
2022-10-10T12:10:13.842Z,101672.69
2022-10-10T12:12:46.212Z,101675.84
2022-10-10T12:15:39.955Z,101680.44
2022-10-10T12:18:25.277Z,101688.47
2022-10-10T12:21:06.571Z,101685.47
2022-10-10T12:23:33.769Z,101682.94
2022-10-10T12:26:00.884Z,101684.59
2022-10-10T12:28:54.649Z,101677.41
2022-10-10T12:31:29.414Z,101686.97
2022-10-10T12:34:29.813Z,101691.19
2022-10-10T12:37:10.897Z,101699.56
2022-10-10T12:39:39.733Z,101697.03
2022-10-10T12:42:27.594Z,101702.97
2022-10-10T12:44:54.503Z,101699.66
2022-10-10T12:47:46.221Z,101706.13
2022-10-10T12:50:41.839Z,101705.47
2022-10-10T12:53:21.144Z,101710.72
2022-10-10T12:55:56.554Z,101717.53
2022-10-10T12:58:28.805Z,101723.88
2022-10-10T13:01:00.859Z,101723.41
2022-10-10T13:03:34.844Z,101729.81
2022-10-10T13:06:24.540Z,101741.50
2022-10-10T13:08:53.624Z,101741.13
2022-10-10T13:11:20.455Z,101748.31
2022-10-10T13:13:55.555Z,101748.72
2022-10-10T13:16:27.673Z,101753.00
2022-10-10T13:18:59.794Z,101749.88
2022-10-10T13:21:29.113Z,101750.38
2022-10-10T13:24:03.491Z,101751.91
2022-10-10T13:26:40.429Z,101757.44
2022-10-10T13:29:15.752Z,101767.78
2022-10-10T13:31:43.570Z,101769.41
2022-10-10T13:34:16.655Z,101772.59
2022-10-10T13:36:43.735Z,101776.31
2022-10-10T13:39:16.485Z,101785.53
2022-10-10T13:41:47.749Z,101786.63
2022-10-10T13:44:17.016Z,101784.69
2022-10-10T13:46:43.816Z,101782.78
2022-10-10T13:49:27.676Z,101786.69
2022-10-10T13:52:06.372Z,101809.44
2022-10-10T13:54:48.199Z,101825.84
2022-10-10T13:57:27.111Z,101843.00
2022-10-10T14:00:05.009Z,101852.56
2022-10-10T14:02:34.595Z,101859.31
2022-10-10T14:05:06.798Z,101863.13
2022-10-10T14:07:34.547Z,101861.69
2022-10-10T14:10:14.294Z,101868.09
2022-10-10T14:12:52.143Z,101871.88
2022-10-10T14:15:30.972Z,101882.19
2022-10-10T14:17:57.728Z,101885.66
2022-10-10T14:20:24.564Z,101882.56
2022-10-10T14:22:52.016Z,101894.66
2022-10-10T14:25:18.834Z,101903.03
2022-10-10T14:27:45.865Z,101911.44
2022-10-10T14:30:15.629Z,101919.81
2022-10-10T14:32:42.337Z,101919.72
2022-10-10T14:35:09.776Z,101927.06
2022-10-10T14:37:38.737Z,101930.47
2022-10-10T14:40:20.332Z,101930.72
2022-10-10T14:42:47.710Z,101929.94
2022-10-10T14:45:16.753Z,101928.50
2022-10-10T14:47:43.484Z,101932.09
2022-10-10T14:50:21.765Z,101941.41
2022-10-10T14:52:48.439Z,101949.47
2022-10-10T14:55:15.538Z,101947.63
2022-10-10T14:57:42.335Z,101954.44
2022-10-10T15:00:16.571Z,101957.06
2022-10-10T15:02:45.590Z,101962.28
2022-10-10T15:05:13.544Z,101963.06
2022-10-10T15:07:40.660Z,101967.25
2022-10-10T15:10:32.702Z,101975.97
2022-10-10T15:12:55.726Z,101973.91
2022-10-10T15:15:22.550Z,101973.44
2022-10-10T15:17:49.957Z,101974.25
2022-10-10T15:20:17.129Z,101971.09
2022-10-10T15:22:46.131Z,101981.13
2022-10-10T15:25:13.035Z,101991.63
2022-10-10T15:27:39.840Z,101988.75
2022-10-10T15:30:07.491Z,101994.09
2022-10-10T15:32:38.005Z,101988.72
2022-10-10T15:35:05.012Z,102000.56
2022-10-10T15:37:31.764Z,102007.72
2022-10-10T15:39:58.616Z,102012.75
2022-10-10T15:42:25.506Z,102012.56
2022-10-10T15:44:52.403Z,102019.94
2022-10-10T15:47:20.469Z,102013.72
2022-10-10T15:49:48.404Z,102015.59
2022-10-10T15:52:15.371Z,102028.72
2022-10-10T15:54:42.239Z,102033.47
2022-10-10T15:57:09.058Z,102031.38
2022-10-10T15:59:37.984Z,102040.06
2022-10-10T16:02:07.394Z,102035.69
2022-10-10T16:04:34.165Z,102037.78
2022-10-10T16:09:47.766Z,102050.94
2022-10-10T16:12:14.620Z,102060.13
2022-10-10T16:14:41.331Z,102058.03
2022-10-10T16:17:08.156Z,102063.81
2022-10-10T16:19:35.022Z,102063.81
2022-10-10T16:22:01.770Z,102082.69
2022-10-10T16:24:28.561Z,102091.84
2022-10-10T16:26:56.046Z,102094.47
2022-10-10T16:29:22.816Z,102092.63
2022-10-10T16:31:49.616Z,102093.41
2022-10-10T16:34:17.506Z,102104.91
2022-10-10T16:36:44.633Z,102108.06
2022-10-10T16:39:12.887Z,102107.53
2022-10-10T16:41:47.976Z,102114.06
2022-10-10T16:44:16.071Z,102116.94
2022-10-10T16:46:43.230Z,102130.28
2022-10-10T16:49:13.062Z,102132.88
2022-10-10T16:51:39.783Z,102137.06
2022-10-10T16:54:06.706Z,102141.25
2022-10-10T16:56:34.288Z,102150.38
2022-10-10T16:59:01.812Z,102150.63
2022-10-10T17:01:28.851Z,102153.69
2022-10-10T17:03:59.131Z,102150.78
2022-10-10T17:06:34.928Z,102168.28
2022-10-10T17:09:02.996Z,102161.72
2022-10-10T17:11:30.103Z,102166.63
2022-10-10T17:13:56.933Z,102171.03
2022-10-10T17:19:13.516Z,102188.19
2022-10-10T17:21:40.463Z,102191.81
2022-10-10T17:24:07.455Z,102187.84
2022-10-10T17:26:34.247Z,102197.50
2022-10-10T17:29:01.038Z,102193.22
2022-10-10T17:31:28.466Z,102205.47
2022-10-10T17:33:57.491Z,102207.00
2022-10-10T17:36:26.140Z,102209.78
2022-10-10T17:38:53.194Z,102213.94
2022-10-10T17:41:21.193Z,102220.94
2022-10-10T17:43:48.130Z,102226.34
2022-10-10T17:46:37.741Z,102235.94
2022-10-10T17:49:07.671Z,102239.53
2022-10-10T17:51:36.096Z,102244.97
2022-10-10T17:54:04.608Z,102243.31
2022-10-10T17:56:32.254Z,102247.94
2022-10-10T17:59:01.773Z,102253.09
2022-10-10T18:01:31.056Z,102259.31
2022-10-10T18:03:59.093Z,102261.59
2022-10-10T18:06:26.149Z,102269.34
2022-10-10T18:08:54.221Z,102272.13
2022-10-10T18:11:24.029Z,102274.44
2022-10-10T18:13:51.766Z,102274.38
2022-10-10T18:16:22.276Z,102280.06
2022-10-10T18:18:51.936Z,102289.41
2022-10-10T18:21:23.389Z,102283.56
2022-10-10T18:23:50.983Z,102291.09
2022-10-10T18:26:21.059Z,102294.41
2022-10-10T18:28:49.144Z,102300.31
2022-10-10T18:31:19.350Z,102297.66
2022-10-10T18:33:46.833Z,102300.72
2022-10-10T18:36:16.756Z,102298.59
2022-10-10T18:38:43.623Z,102312.09
2022-10-10T18:41:13.741Z,102306.00
2022-10-10T18:43:41.954Z,102299.94
2022-10-10T18:46:11.147Z,102305.63
2022-10-10T18:48:38.761Z,102312.34
2022-10-10T18:51:09.114Z,102318.25
2022-10-10T18:53:37.577Z,102319.75
2022-10-10T18:56:05.273Z,102319.19
2022-10-10T18:58:34.039Z,102326.69
2022-10-10T19:01:03.522Z,102325.56
2022-10-10T19:03:31.530Z,102331.50
2022-10-10T19:05:58.859Z,102338.94
2022-10-10T19:08:25.722Z,102343.59
2022-10-10T19:10:52.602Z,102340.88
2022-10-10T19:13:20.398Z,102346.03
2022-10-10T19:15:49.996Z,102352.22
2022-10-10T19:18:17.176Z,102358.94
2022-10-10T19:20:44.432Z,102359.06
2022-10-10T19:23:14.149Z,102360.56
2022-10-10T19:25:43.255Z,102361.22
2022-10-10T19:28:10.519Z,102372.13
2022-10-10T19:30:42.789Z,102369.16
2022-10-10T19:33:10.920Z,102372.00
2022-10-10T19:35:40.141Z,102380.06
2022-10-10T19:38:08.542Z,102380.28
2022-10-10T19:40:43.068Z,102386.50
2022-10-10T19:43:09.938Z,102391.13
2022-10-10T19:45:44.588Z,102394.22
2022-10-10T19:48:11.456Z,102387.88
2022-10-10T19:50:40.096Z,102398.50
2022-10-10T19:53:08.532Z,102396.59
2022-10-10T19:55:35.583Z,102402.25
2022-10-10T19:58:03.010Z,102402.72
2022-10-10T20:00:29.887Z,102404.75
2022-10-10T20:02:56.809Z,102415.03
2022-10-10T20:05:23.931Z,102410.50
2022-10-10T20:07:51.279Z,102422.97
2022-10-10T20:10:19.112Z,102428.38
2022-10-10T20:12:46.629Z,102426.22
2022-10-10T20:15:13.525Z,102432.44
2022-10-10T20:17:40.556Z,102432.88
2022-10-10T20:20:08.020Z,102431.53
2022-10-10T20:22:35.162Z,102434.34
2022-10-10T20:25:02.163Z,102437.97
2022-10-10T20:27:31.218Z,102447.81
2022-10-10T20:29:58.860Z,102447.25
2022-10-10T20:32:25.851Z,102451.31
2022-10-10T20:34:52.671Z,102446.75
2022-10-10T20:37:19.420Z,102451.19
2022-10-10T20:39:46.754Z,102454.25
2022-10-10T20:42:13.691Z,102453.66
2022-10-10T20:44:40.652Z,102456.47
2022-10-10T20:47:07.467Z,102460.31
2022-10-10T20:49:35.067Z,102469.13
2022-10-10T20:52:01.846Z,102472.75
2022-10-10T20:54:28.735Z,102476.34
2022-10-10T20:56:55.544Z,102486.75
2022-10-10T20:59:24.630Z,102490.59
2022-10-10T21:01:51.590Z,102486.84
2022-10-10T21:04:18.611Z,102489.88
2022-10-10T21:06:45.492Z,102489.53
2022-10-10T21:09:15.011Z,102494.97
2022-10-10T21:11:42.444Z,102498.78
2022-10-10T21:14:10.923Z,102496.63
2022-10-10T21:16:40.066Z,102502.25
2022-10-10T21:19:09.407Z,102509.47
2022-10-10T21:21:37.092Z,102509.16
2022-10-10T21:24:05.914Z,102512.16
2022-10-10T21:26:33.235Z,102512.81
2022-10-10T21:29:01.307Z,102521.25
2022-10-10T21:31:36.814Z,102512.09
2022-10-10T21:34:07.681Z,102521.34
2022-10-10T21:36:36.403Z,102524.38
2022-10-10T21:39:06.763Z,102523.00
2022-10-10T21:41:34.284Z,102524.22
2022-10-10T21:44:01.084Z,102521.06
2022-10-10T21:46:35.612Z,102532.88
2022-10-10T21:49:06.530Z,102531.75
2022-10-10T21:51:39.220Z,102532.16
2022-10-10T21:54:06.519Z,102535.97
2022-10-10T21:56:33.995Z,102538.56
2022-10-10T21:59:01.591Z,102537.78
2022-10-10T22:01:29.542Z,102541.63
2022-10-10T22:03:56.594Z,102547.81
2022-10-10T22:06:24.189Z,102551.63
2022-10-10T22:08:52.544Z,102561.66
2022-10-10T22:11:23.076Z,102563.66
2022-10-10T22:13:50.865Z,102556.91
2022-10-10T22:16:19.489Z,102559.69
2022-10-10T22:18:46.260Z,102566.09
2022-10-10T22:21:16.065Z,102565.09
2022-10-10T22:23:44.146Z,102574.13
2022-10-10T22:26:13.175Z,102565.75
2022-10-10T22:28:40.227Z,102570.38
2022-10-10T22:31:08.996Z,102573.56
2022-10-10T22:33:35.844Z,102578.56
2022-10-10T22:36:05.052Z,102581.16
2022-10-10T22:38:32.405Z,102574.59
2022-10-10T22:40:59.300Z,102574.59
2022-10-10T22:43:27.092Z,102581.81
2022-10-10T22:45:54.198Z,102569.81
2022-10-10T22:48:21.050Z,102573.44
2022-10-10T22:50:47.861Z,102580.63
2022-10-10T22:53:14.682Z,102580.25
2022-10-10T22:55:41.535Z,102577.09
2022-10-10T22:58:08.295Z,102582.47
2022-10-10T23:00:35.211Z,102583.50
2022-10-10T23:03:02.018Z,102586.28
2022-10-10T23:05:32.987Z,102588.31
2022-10-10T23:07:59.811Z,102592.91
2022-10-10T23:10:26.614Z,102585.50
2022-10-10T23:12:53.427Z,102592.50
2022-10-10T23:15:20.229Z,102596.31
2022-10-10T23:17:46.956Z,102587.38
2022-10-10T23:20:13.893Z,102585.19
2022-10-10T23:22:40.727Z,102598.59
2022-10-10T23:25:07.702Z,102598.00
2022-10-10T23:27:35.751Z,102606.97
2022-10-10T23:30:02.536Z,102599.44
2022-10-10T23:32:30.458Z,102609.22
2022-10-10T23:34:57.306Z,102601.84
2022-10-10T23:37:25.411Z,102600.47
2022-10-10T23:39:52.141Z,102597.69
2022-10-10T23:42:18.907Z,102599.69
2022-10-10T23:44:45.708Z,102598.50
2022-10-10T23:47:12.574Z,102593.56
2022-10-10T23:49:39.414Z,102593.56
2022-10-10T23:52:06.158Z,102596.56
2022-10-10T23:54:33.053Z,102594.16
2022-10-10T23:57:00.092Z,102596.94
2022-10-10T23:59:26.861Z,102607.75
